Time;durP1;ratioP1;P1;durP2;ratioP2;P2;SDS_P1;SDS_P2;PMS_P1;PMS_P2;Temp;Humidity;BMP_temperature;BMP_pressure;BME280_temperature;BME280_humidity;BME280_pressure;Samples;Min_cycle;Max_cycle;Signal;HPM_P1;HPM_P2
2022/03/14 00:00:24;;;;;;;33.03;12.63;;;0.30;53.50;;;;;;5072286;28;20076;-58
2022/03/14 00:02:50;;;;;;;15.77;11.05;;;0.30;53.70;;;;;;5072367;28;20467;-58
2022/03/14 00:05:17;;;;;;;19.50;12.75;;;0.30;53.70;;;;;;5072401;28;20032;-56
2022/03/14 00:07:44;;;;;;;18.30;12.52;;;0.30;54.20;;;;;;5070175;28;20020;-58
2022/03/14 00:10:12;;;;;;;20.80;11.63;;;0.40;54.00;;;;;;5070794;28;20025;-58
2022/03/14 00:12:40;;;;;;;18.80;11.82;;;0.50;53.60;;;;;;5071473;28;20029;-57
2022/03/14 00:15:09;;;;;;;18.17;11.77;;;0.50;53.80;;;;;;5071595;28;20111;-58
2022/03/14 00:17:50;;;;;;;20.50;12.43;;;0.50;53.90;;;;;;5071705;28;20029;-58
2022/03/14 00:20:16;;;;;;;17.48;11.32;;;0.50;52.90;;;;;;5071640;28;20056;-57
2022/03/14 00:22:43;;;;;;;18.75;12.60;;;0.60;50.90;;;;;;5071990;28;20032;-58
2022/03/14 00:25:10;;;;;;;21.10;11.50;;;0.70;51.70;;;;;;5072194;28;20028;-57
2022/03/14 00:27:37;;;;;;;17.52;12.23;;;0.70;52.00;;;;;;5071967;28;20375;-58
2022/03/14 00:30:10;;;;;;;16.83;10.45;;;0.80;52.50;;;;;;5071956;28;20107;-56
2022/03/14 00:32:36;;;;;;;20.53;11.93;;;0.70;52.60;;;;;;5071566;28;20025;-58
2022/03/14 00:35:02;;;;;;;15.45;11.27;;;0.80;52.90;;;;;;5071737;28;20048;-59
2022/03/14 00:37:28;;;;;;;16.90;11.57;;;0.80;53.10;;;;;;5071931;28;20024;-55
2022/03/14 00:39:54;;;;;;;17.73;12.20;;;0.80;52.10;;;;;;5071295;28;20033;-58
2022/03/14 00:42:23;;;;;;;18.63;11.73;;;0.80;51.40;;;;;;5071795;28;20410;-58
2022/03/14 00:44:50;;;;;;;18.48;11.77;;;0.80;51.10;;;;;;5070372;28;20423;-58
2022/03/14 00:47:16;;;;;;;23.17;13.00;;;0.70;53.40;;;;;;5071815;28;20032;-56
2022/03/14 00:49:43;;;;;;;16.80;12.52;;;0.60;53.20;;;;;;5071477;28;20021;-57
2022/03/14 00:52:08;;;;;;;19.95;13.52;;;0.50;54.40;;;;;;5071729;28;20090;-56
2022/03/14 00:54:34;;;;;;;18.90;12.57;;;0.40;54.70;;;;;;5071535;28;20028;-58
2022/03/14 00:57:00;;;;;;;17.38;12.38;;;0.30;54.90;;;;;;5071629;28;20048;-57
2022/03/14 00:59:27;;;;;;;17.58;11.80;;;0.10;55.10;;;;;;5071341;28;20024;-55
2022/03/14 01:01:54;;;;;;;22.77;13.82;;;0.00;56.00;;;;;;5071355;28;20059;-57
2022/03/14 01:04:19;;;;;;;19.38;13.10;;;0.00;55.70;;;;;;5071356;28;20079;-58
2022/03/14 01:06:45;;;;;;;17.88;12.68;;;-0.10;56.60;;;;;;5071147;28;20049;-58
2022/03/14 01:09:11;;;;;;;20.75;12.23;;;-0.10;55.80;;;;;;5071262;28;20070;-58
2022/03/14 01:11:37;;;;;;;37.15;12.50;;;-0.10;55.80;;;;;;5069946;28;20025;-55
2022/03/14 01:14:04;;;;;;;23.80;12.82;;;-0.10;57.40;;;;;;5071408;28;20040;-58
2022/03/14 01:16:30;;;;;;;17.67;11.88;;;-0.20;57.20;;;;;;5071273;28;20048;-58
2022/03/14 01:18:56;;;;;;;31.60;11.85;;;-0.20;57.00;;;;;;5070894;28;20029;-58
2022/03/14 01:21:21;;;;;;;15.98;11.88;;;-0.10;57.00;;;;;;5074915;28;20044;-57
2022/03/14 01:23:47;;;;;;;20.67;11.80;;;-0.20;56.00;;;;;;5077113;28;20418;-56
2022/03/14 01:26:13;;;;;;;18.20;12.10;;;-0.10;56.60;;;;;;5077602;28;20025;-56
2022/03/14 01:28:38;;;;;;;19.02;12.18;;;-0.10;56.80;;;;;;5077426;28;20055;-58
2022/03/14 01:31:04;;;;;;;18.75;11.50;;;-0.10;56.70;;;;;;5077618;28;20020;-56
2022/03/14 01:33:30;;;;;;;19.27;11.20;;;-0.10;56.70;;;;;;5077584;28;20034;-55
2022/03/14 01:35:55;;;;;;;24.45;13.27;;;-0.10;57.40;;;;;;5077050;28;20112;-58
2022/03/14 01:38:21;;;;;;;16.90;11.60;;;0.00;57.00;;;;;;5077378;28;20566;-58
2022/03/14 01:40:47;;;;;;;19.75;13.20;;;0.00;55.50;;;;;;5077438;28;20397;-57
2022/03/14 01:43:15;;;;;;;17.83;12.05;;;0.00;55.80;;;;;;5076035;28;20120;-57
2022/03/14 01:45:41;;;;;;;18.70;13.13;;;0.00;56.00;;;;;;5077489;28;20024;-58
2022/03/14 01:48:07;;;;;;;17.75;11.68;;;0.00;56.00;;;;;;5077548;28;20623;-57
2022/03/14 01:50:34;;;;;;;17.27;12.00;;;-0.10;56.40;;;;;;5077332;28;20032;-55
2022/03/14 01:52:59;;;;;;;19.20;12.90;;;0.00;58.10;;;;;;5076605;28;20032;-56
2022/03/14 01:55:25;;;;;;;21.85;11.30;;;-0.10;57.00;;;;;;5077223;28;20585;-58
2022/03/14 01:57:51;;;;;;;18.08;12.20;;;-0.10;57.20;;;;;;5076933;28;20157;-58
2022/03/14 02:00:17;;;;;;;20.27;12.50;;;0.00;56.80;;;;;;5076535;28;20530;-56
2022/03/14 02:02:43;;;;;;;15.32;11.60;;;0.00;57.30;;;;;;5076378;28;20021;-58
2022/03/14 02:05:12;;;;;;;19.00;11.98;;;-0.10;58.10;;;;;;5076436;28;20020;-58
2022/03/14 02:07:37;;;;;;;37.10;16.88;;;-0.20;59.40;;;;;;5076291;28;20013;-57
2022/03/14 02:10:03;;;;;;;18.10;12.18;;;-0.20;59.00;;;;;;5075079;28;20043;-56
2022/03/14 02:12:29;;;;;;;23.60;13.27;;;-0.20;58.90;;;;;;5076211;28;20082;-55
2022/03/14 02:14:55;;;;;;;97.32;37.65;;;-0.30;59.70;;;;;;5077686;28;20103;-57
2022/03/14 02:17:21;;;;;;;83.53;31.00;;;-0.40;61.40;;;;;;5077685;28;20040;-56
2022/03/14 02:19:46;;;;;;;145.52;51.92;;;-0.50;61.90;;;;;;5077340;28;20072;-56
2022/03/14 02:22:14;;;;;;;89.32;34.33;;;-0.60;62.40;;;;;;5077038;28;20099;-55
2022/03/14 02:24:44;;;;;;;52.17;23.70;;;-0.70;63.30;;;;;;5076216;28;20016;-57
2022/03/14 02:27:14;;;;;;;31.58;16.52;;;-0.70;63.90;;;;;;5076333;28;20015;-55
2022/03/14 02:29:41;;;;;;;62.13;26.48;;;-0.80;64.30;;;;;;5075016;28;20515;-55
2022/03/14 02:32:13;;;;;;;31.55;16.85;;;-0.90;65.30;;;;;;5075079;28;20404;-53
2022/03/14 02:34:40;;;;;;;36.42;17.52;;;-1.00;66.10;;;;;;5073967;28;20013;-55
2022/03/14 02:37:06;;;;;;;19.83;13.40;;;-1.00;67.10;;;;;;5072952;28;20388;-54
2022/03/14 02:39:34;;;;;;;24.98;14.30;;;-1.20;67.30;;;;;;5072689;28;20031;-52
2022/03/14 02:42:01;;;;;;;22.10;13.38;;;-1.40;68.10;;;;;;5073244;28;20021;-55
2022/03/14 02:44:27;;;;;;;73.90;25.83;;;-1.50;70.20;;;;;;5074104;28;20013;-56
2022/03/14 02:46:53;;;;;;;69.78;23.95;;;-1.50;71.00;;;;;;5074003;28;20016;-56
2022/03/14 02:49:19;;;;;;;28.95;16.50;;;-1.50;71.90;;;;;;5074035;28;20020;-57
2022/03/14 02:51:46;;;;;;;28.42;14.43;;;-1.50;72.90;;;;;;5074028;28;20060;-57
2022/03/14 02:54:12;;;;;;;29.25;15.18;;;-1.50;74.00;;;;;;5074018;28;20032;-53
2022/03/14 02:56:39;;;;;;;32.13;16.65;;;-1.60;75.30;;;;;;5073643;28;20032;-52
2022/03/14 02:59:06;;;;;;;26.20;14.65;;;-1.60;77.90;;;;;;5073755;28;20028;-57
2022/03/14 03:01:33;;;;;;;24.45;15.75;;;-1.70;78.90;;;;;;5073811;28;20364;-54
2022/03/14 03:03:59;;;;;;;24.75;15.20;;;-1.70;80.20;;;;;;5073292;28;20154;-57
2022/03/14 03:06:24;;;;;;;25.50;15.50;;;-1.70;82.40;;;;;;5073191;28;20092;-56
2022/03/14 03:08:50;;;;;;;32.00;14.48;;;-1.80;84.80;;;;;;5072277;28;20024;-56
2022/03/14 03:11:16;;;;;;;23.40;14.55;;;-1.80;86.20;;;;;;5072252;28;20028;-52
2022/03/14 03:13:43;;;;;;;25.15;14.90;;;-1.80;88.00;;;;;;5071974;28;20120;-53
2022/03/14 03:16:10;;;;;;;23.17;14.15;;;-1.90;90.70;;;;;;5072452;28;20518;-53
2022/03/14 03:18:36;;;;;;;19.98;14.02;;;-2.10;91.70;;;;;;5072262;28;20217;-53
2022/03/14 03:21:02;;;;;;;24.80;14.40;;;-2.10;93.00;;;;;;5070985;28;20029;-55
2022/03/14 03:23:29;;;;;;;25.08;14.80;;;-2.20;94.80;;;;;;5072146;28;20024;-54
2022/03/14 03:25:55;;;;;;;25.08;14.82;;;-2.20;96.60;;;;;;5073291;28;20491;-52
2022/03/14 03:28:20;;;;;;;21.60;14.68;;;-2.20;97.30;;;;;;5073300;28;20029;-53
2022/03/14 03:30:46;;;;;;;21.70;13.68;;;-2.30;97.50;;;;;;5073117;28;20016;-55
2022/03/14 03:33:12;;;;;;;21.52;15.05;;;-2.30;98.60;;;;;;5071892;28;20067;-55
2022/03/14 03:35:37;;;;;;;21.42;16.08;;;-2.30;99.50;;;;;;5072359;28;20016;-57
2022/03/14 03:38:03;;;;;;;24.10;14.45;;;-2.30;99.60;;;;;;5072239;28;20028;-55
2022/03/14 03:40:29;;;;;;;21.45;14.88;;;-2.30;99.60;;;;;;5072262;28;20043;-54
2022/03/14 03:42:55;;;;;;;26.77;14.98;;;-2.30;99.90;;;;;;5073002;28;20067;-57
2022/03/14 03:45:21;;;;;;;22.40;13.98;;;-2.30;99.70;;;;;;5070463;28;20111;-56
2022/03/14 03:47:47;;;;;;;24.35;13.52;;;-2.30;99.80;;;;;;5072383;28;20036;-56
2022/03/14 03:50:12;;;;;;;25.80;14.57;;;-2.30;99.90;;;;;;5072722;28;20113;-55
2022/03/14 03:52:38;;;;;;;24.00;14.65;;;-2.30;99.90;;;;;;5072583;28;20119;-53
2022/03/14 03:55:05;;;;;;;21.73;13.90;;;-2.30;99.90;;;;;;5072760;28;20111;-57
2022/03/14 03:57:31;;;;;;;25.35;13.88;;;-2.40;99.90;;;;;;5072524;28;20071;-56
2022/03/14 03:59:58;;;;;;;21.77;14.80;;;-2.50;99.90;;;;;;5072504;28;20046;-57
2022/03/14 04:02:23;;;;;;;20.38;13.85;;;-2.40;99.90;;;;;;5072676;28;20085;-52
2022/03/14 04:04:50;;;;;;;27.40;14.88;;;-2.40;99.90;;;;;;5072661;28;20029;-54
2022/03/14 04:07:23;;;;;;;28.13;14.63;;;-2.40;99.90;;;;;;5072260;28;20383;-55
2022/03/14 04:09:55;;;;;;;22.10;14.45;;;-2.40;99.90;;;;;;5071986;28;20464;-56
2022/03/14 04:12:29;;;;;;;20.20;13.68;;;-2.30;99.90;;;;;;5070552;28;20055;-56
2022/03/14 04:15:00;;;;;;;22.83;14.02;;;-2.40;99.90;;;;;;5071837;28;20123;-57
2022/03/14 04:17:27;;;;;;;23.40;14.68;;;-2.50;99.90;;;;;;5072084;28;20103;-55
2022/03/14 04:19:53;;;;;;;21.73;15.18;;;-2.50;99.90;;;;;;5072104;28;20363;-57
2022/03/14 04:22:21;;;;;;;26.17;14.85;;;-2.50;99.90;;;;;;5071985;28;20024;-55
2022/03/14 04:24:47;;;;;;;24.05;14.13;;;-2.50;99.90;;;;;;5071862;28;20028;-53
2022/03/14 04:27:13;;;;;;;19.73;13.18;;;-2.60;99.90;;;;;;5070845;28;20017;-56
2022/03/14 04:29:39;;;;;;;21.30;14.30;;;-2.70;99.90;;;;;;5071852;28;20078;-54
2022/03/14 04:32:05;;;;;;;22.70;14.30;;;-2.70;99.90;;;;;;5072125;28;20032;-56
2022/03/14 04:34:32;;;;;;;24.58;15.60;;;-2.70;99.90;;;;;;5071856;28;20035;-56
2022/03/14 04:36:58;;;;;;;36.08;15.27;;;-2.70;99.90;;;;;;5071966;28;20498;-56
2022/03/14 04:39:24;;;;;;;31.27;18.05;;;-2.70;99.90;;;;;;5071690;28;20035;-52
2022/03/14 04:41:51;;;;;;;42.00;19.55;;;-2.70;99.90;;;;;;5071311;28;20019;-55
2022/03/14 04:44:19;;;;;;;26.30;15.65;;;-2.70;99.90;;;;;;5071385;28;20014;-55
2022/03/14 04:46:45;;;;;;;29.00;17.48;;;-2.80;99.90;;;;;;5071472;28;20372;-55
2022/03/14 04:49:13;;;;;;;27.85;15.50;;;-2.70;99.90;;;;;;5071413;28;20048;-57
2022/03/14 04:51:39;;;;;;;26.85;16.10;;;-2.60;99.90;;;;;;5069900;28;20457;-56
2022/03/14 04:54:06;;;;;;;26.65;16.88;;;-2.60;99.90;;;;;;5071404;28;20046;-57
2022/03/14 04:56:32;;;;;;;21.05;15.57;;;-2.70;99.90;;;;;;5071237;28;20161;-49
2022/03/14 04:58:58;;;;;;;21.33;14.85;;;-2.60;99.90;;;;;;5071510;28;20046;-54
2022/03/14 05:01:24;;;;;;;27.80;15.73;;;-2.60;99.90;;;;;;5071032;28;20483;-53
2022/03/14 05:03:52;;;;;;;26.15;16.05;;;-2.60;99.90;;;;;;5070392;28;20046;-58
2022/03/14 05:06:18;;;;;;;27.77;17.73;;;-2.60;99.90;;;;;;5070391;28;20552;-57
2022/03/14 05:08:45;;;;;;;26.73;15.80;;;-2.70;99.90;;;;;;5070291;28;20493;-56
2022/03/14 05:11:11;;;;;;;27.45;16.25;;;-2.80;99.90;;;;;;5071434;28;20082;-58
2022/03/14 05:13:37;;;;;;;25.60;16.65;;;-2.80;99.90;;;;;;5070894;28;20056;-58
2022/03/14 05:16:03;;;;;;;30.15;17.30;;;-2.80;99.90;;;;;;5071371;28;20052;-58
2022/03/14 05:18:29;;;;;;;24.02;15.63;;;-2.90;99.90;;;;;;5071075;28;20028;-59
2022/03/14 05:20:55;;;;;;;30.80;15.27;;;-2.90;99.90;;;;;;5069975;28;20035;-58
2022/03/14 05:23:20;;;;;;;28.15;18.52;;;-2.90;99.90;;;;;;5071355;28;20502;-57
2022/03/14 05:25:46;;;;;;;30.00;16.92;;;-2.70;99.90;;;;;;5071226;28;20044;-58
2022/03/14 05:28:12;;;;;;;23.70;14.70;;;-2.60;99.90;;;;;;5071385;28;20021;-60
2022/03/14 05:30:38;;;;;;;27.50;15.75;;;-2.50;99.90;;;;;;5071205;28;20528;-57
2022/03/14 05:33:03;;;;;;;29.83;15.80;;;-2.30;99.90;;;;;;5071129;28;20646;-57
2022/03/14 05:35:29;;;;;;;38.78;16.85;;;-2.30;99.90;;;;;;5069672;28;20078;-58
2022/03/14 05:37:55;;;;;;;31.83;17.55;;;-2.10;99.90;;;;;;5071242;28;20025;-58
2022/03/14 05:40:21;;;;;;;28.35;15.70;;;-2.10;99.90;;;;;;5071267;28;20134;-56
2022/03/14 05:42:50;;;;;;;34.67;16.65;;;-2.20;99.90;;;;;;5070921;28;20035;-58
2022/03/14 05:45:17;;;;;;;29.33;15.68;;;-2.10;99.90;;;;;;5071398;28;20017;-57
2022/03/14 05:47:43;;;;;;;31.58;17.30;;;-2.00;99.90;;;;;;5071037;28;20021;-58
2022/03/14 05:50:09;;;;;;;27.00;16.42;;;-1.80;99.90;;;;;;5070999;28;20024;-57
2022/03/14 05:52:36;;;;;;;24.00;16.33;;;-1.70;99.90;;;;;;5070916;28;20066;-58
2022/03/14 05:55:02;;;;;;;29.00;16.80;;;-1.60;99.90;;;;;;5071094;28;20029;-58
2022/03/14 05:57:27;;;;;;;54.50;16.95;;;-1.50;99.90;;;;;;5071021;28;20064;-58
2022/03/14 05:59:53;;;;;;;30.10;16.02;;;-1.50;99.90;;;;;;5070220;28;20055;-58
2022/03/14 06:02:23;;;;;;;28.17;15.40;;;-1.50;99.90;;;;;;5070918;28;20016;-58
2022/03/14 06:04:50;;;;;;;27.50;16.83;;;-1.40;99.90;;;;;;5070761;28;20032;-59
2022/03/14 06:07:15;;;;;;;27.27;16.13;;;-1.30;99.90;;;;;;5071199;28;20096;-57
2022/03/14 06:09:41;;;;;;;26.13;16.15;;;-1.20;99.90;;;;;;5074470;28;20116;-56
2022/03/14 06:12:07;;;;;;;29.95;15.10;;;-1.00;99.90;;;;;;5074660;28;20028;-55
2022/03/14 06:14:34;;;;;;;31.88;15.65;;;-0.90;99.90;;;;;;5074218;28;20090;-58
2022/03/14 06:16:59;;;;;;;33.58;17.65;;;-0.80;99.90;;;;;;5074416;28;20090;-58
2022/03/14 06:19:25;;;;;;;167.48;54.33;;;-0.70;99.90;;;;;;5074203;28;20483;-57
2022/03/14 06:21:51;;;;;;;28.80;16.77;;;-0.60;99.90;;;;;;5074174;28;20020;-58
2022/03/14 06:24:17;;;;;;;27.23;14.70;;;-0.60;99.90;;;;;;5074367;28;20052;-58
2022/03/14 06:26:43;;;;;;;23.83;15.27;;;-0.50;99.10;;;;;;5074313;28;20025;-58
2022/03/14 06:29:09;;;;;;;36.60;16.50;;;-0.50;99.40;;;;;;5074179;28;20098;-58
2022/03/14 06:31:35;;;;;;;374.23;106.90;;;-0.60;99.60;;;;;;5072652;28;20033;-58
2022/03/14 06:34:01;;;;;;;32.45;16.83;;;-0.40;99.50;;;;;;5072831;28;20111;-57
2022/03/14 06:36:28;;;;;;;24.65;14.43;;;-0.30;99.10;;;;;;5074026;28;20046;-58
2022/03/14 06:38:57;;;;;;;21.38;13.32;;;-0.10;98.80;;;;;;5073926;28;20021;-57
2022/03/14 06:41:23;;;;;;;31.92;15.57;;;0.00;97.40;;;;;;5074106;28;20426;-59
2022/03/14 06:43:49;;;;;;;191.13;65.07;;;0.10;96.40;;;;;;5072416;28;20082;-58
2022/03/14 06:46:15;;;;;;;148.13;48.70;;;0.20;96.40;;;;;;5072716;28;20024;-59
2022/03/14 06:48:41;;;;;;;55.42;22.70;;;0.40;94.90;;;;;;5072456;28;20023;-59
2022/03/14 06:51:07;;;;;;;54.72;23.02;;;0.50;92.50;;;;;;5073383;28;20020;-59
2022/03/14 06:53:33;;;;;;;47.30;21.52;;;0.70;93.70;;;;;;5073494;28;20032;-58
2022/03/14 06:55:58;;;;;;;23.25;14.20;;;0.80;93.50;;;;;;5073518;28;20384;-58
2022/03/14 06:58:24;;;;;;;37.65;15.60;;;0.90;93.00;;;;;;5073314;28;20039;-58
2022/03/14 07:00:50;;;;;;;35.65;16.13;;;1.10;91.70;;;;;;5073131;28;20029;-59
2022/03/14 07:03:16;;;;;;;25.40;13.25;;;1.20;91.90;;;;;;5073724;28;20111;-58
2022/03/14 07:05:42;;;;;;;51.53;19.08;;;1.40;92.10;;;;;;5073544;28;20079;-59
2022/03/14 07:08:09;;;;;;;38.17;15.40;;;1.50;92.20;;;;;;5073644;28;20103;-56
2022/03/14 07:10:36;;;;;;;87.03;27.73;;;1.70;93.60;;;;;;5073274;28;20109;-59
2022/03/14 07:13:02;;;;;;;66.18;21.63;;;2.00;94.20;;;;;;5073162;28;20066;-59
2022/03/14 07:15:28;;;;;;;22.45;13.10;;;2.30;93.50;;;;;;5073378;28;20107;-59
2022/03/14 07:17:54;;;;;;;66.78;25.38;;;2.50;94.20;;;;;;5071986;28;20527;-58
2022/03/14 07:20:20;;;;;;;21.70;13.13;;;2.80;94.70;;;;;;5073242;28;20035;-59
2022/03/14 07:22:57;;;;;;;25.70;11.95;;;3.30;94.20;;;;;;5073223;28;20535;-59
2022/03/14 07:25:28;;;;;;;18.80;11.60;;;3.60;94.10;;;;;;5073223;28;20074;-57
2022/03/14 07:27:55;;;;;;;21.10;13.63;;;4.10;94.70;;;;;;5073144;28;20021;-58
2022/03/14 07:30:22;;;;;;;21.13;12.15;;;4.60;95.40;;;;;;5073122;28;20023;-58
2022/03/14 07:32:49;;;;;;;34.03;14.40;;;5.00;95.80;;;;;;5072925;28;20490;-59
2022/03/14 07:35:15;;;;;;;21.25;12.70;;;5.50;95.10;;;;;;5073272;28;20055;-58
2022/03/14 07:37:41;;;;;;;23.92;12.15;;;6.00;94.40;;;;;;5072889;28;20123;-59
2022/03/14 07:40:09;;;;;;;21.02;13.13;;;6.40;94.00;;;;;;5073046;28;20457;-59
2022/03/14 07:42:46;;;;;;;19.02;13.27;;;6.70;93.60;;;;;;5072714;28;20025;-58
2022/03/14 07:45:14;;;;;;;25.52;13.73;;;6.90;93.60;;;;;;5072669;28;20047;-59
2022/03/14 07:47:40;;;;;;;28.90;16.58;;;7.10;93.70;;;;;;5072586;28;20398;-59
2022/03/14 07:50:08;;;;;;;23.98;13.00;;;7.30;93.90;;;;;;5072833;28;20028;-59
2022/03/14 07:52:35;;;;;;;23.75;15.05;;;7.50;94.50;;;;;;5072672;28;20067;-59
2022/03/14 07:55:01;;;;;;;24.38;15.50;;;7.60;94.40;;;;;;5072815;28;20028;-59
2022/03/14 07:57:27;;;;;;;24.17;13.57;;;7.90;94.40;;;;;;5072630;28;20055;-60
2022/03/14 07:59:53;;;;;;;22.05;15.70;;;8.10;94.60;;;;;;5072298;28;20066;-60
2022/03/14 08:02:20;;;;;;;26.13;14.23;;;8.20;93.90;;;;;;5072646;28;20028;-59
2022/03/14 08:04:46;;;;;;;21.38;14.90;;;8.30;93.40;;;;;;5072404;28;20475;-60
2022/03/14 08:07:12;;;;;;;22.48;15.45;;;8.30;93.20;;;;;;5072560;28;20082;-60
2022/03/14 08:09:37;;;;;;;21.85;14.60;;;8.40;93.00;;;;;;5072348;28;20033;-59
2022/03/14 08:12:04;;;;;;;31.45;15.73;;;8.30;93.00;;;;;;5072280;28;20024;-60
2022/03/14 08:14:33;;;;;;;30.98;14.63;;;8.30;92.30;;;;;;5070581;28;20053;-60
2022/03/14 08:16:59;;;;;;;30.65;15.98;;;8.30;92.30;;;;;;5072309;28;20043;-59
2022/03/14 08:19:25;;;;;;;23.77;15.35;;;8.10;92.10;;;;;;5072092;28;20392;-59
2022/03/14 08:21:51;;;;;;;22.13;14.90;;;8.20;91.60;;;;;;5072159;28;20028;-59
2022/03/14 08:24:17;;;;;;;22.10;15.23;;;8.20;91.80;;;;;;5072348;28;20744;-59
2022/03/14 08:26:43;;;;;;;40.13;17.98;;;8.20;91.80;;;;;;5071910;28;20375;-60
2022/03/14 08:29:09;;;;;;;25.90;16.50;;;8.30;91.90;;;;;;5071823;28;20048;-58
2022/03/14 08:31:35;;;;;;;26.50;15.73;;;8.30;91.60;;;;;;5071141;28;20104;-59
2022/03/14 08:34:01;;;;;;;33.25;16.13;;;8.30;92.00;;;;;;5072023;28;20727;-60
2022/03/14 08:36:27;;;;;;;34.60;15.68;;;8.50;92.20;;;;;;5072075;28;20020;-59
2022/03/14 08:38:53;;;;;;;23.27;14.48;;;8.60;91.50;;;;;;5071576;28;20035;-60
2022/03/14 08:41:19;;;;;;;30.08;15.57;;;8.80;91.20;;;;;;5071773;28;20020;-60
2022/03/14 08:43:46;;;;;;;26.67;16.63;;;8.90;91.00;;;;;;5071672;28;20077;-60
2022/03/14 08:46:15;;;;;;;26.73;16.23;;;9.10;91.10;;;;;;5071914;28;20581;-60
2022/03/14 08:48:41;;;;;;;31.63;15.38;;;9.30;90.90;;;;;;5070458;28;20484;-59
2022/03/14 08:51:07;;;;;;;25.38;15.48;;;9.40;91.00;;;;;;5071763;28;20325;-60
2022/03/14 08:53:32;;;;;;;26.52;16.95;;;9.70;90.20;;;;;;5071600;28;20032;-59
2022/03/14 08:56:01;;;;;;;25.00;16.50;;;9.80;89.30;;;;;;5071761;28;20502;-59
2022/03/14 08:58:29;;;;;;;33.10;17.58;;;10.00;88.60;;;;;;5071542;28;20074;-60
2022/03/14 09:00:55;;;;;;;25.25;16.90;;;10.30;88.30;;;;;;5071696;28;20013;-60
2022/03/14 09:03:21;;;;;;;35.60;17.95;;;10.30;87.90;;;;;;5071573;28;20032;-60
2022/03/14 09:05:47;;;;;;;30.23;18.15;;;10.60;87.70;;;;;;5071333;28;20032;-60
2022/03/14 09:08:12;;;;;;;33.28;18.88;;;11.00;84.60;;;;;;5071550;28;20120;-60
2022/03/14 09:10:39;;;;;;;126.43;55.95;;;11.00;84.10;;;;;;5071355;28;20074;-60
2022/03/14 09:13:05;;;;;;;118.30;55.58;;;11.00;84.50;;;;;;5071287;28;20041;-60
2022/03/14 09:15:31;;;;;;;24.65;17.73;;;11.20;83.50;;;;;;5071268;28;20360;-60
2022/03/14 09:18:00;;;;;;;30.50;17.38;;;11.90;82.20;;;;;;5071413;28;20495;-60
2022/03/14 09:20:27;;;;;;;28.50;15.15;;;12.10;80.50;;;;;;5071403;28;20024;-60
2022/03/14 09:22:53;;;;;;;48.70;26.00;;;12.60;79.30;;;;;;5070316;28;20191;-60
2022/03/14 09:25:21;;;;;;;34.05;16.83;;;12.30;79.40;;;;;;5071027;28;20103;-60
2022/03/14 09:27:48;;;;;;;93.10;45.15;;;12.50;80.10;;;;;;5071018;28;20021;-60
2022/03/14 09:30:15;;;;;;;21.95;16.17;;;12.60;78.40;;;;;;5071323;28;20025;-60
2022/03/14 09:32:42;;;;;;;23.20;14.68;;;12.60;77.90;;;;;;5071069;28;20029;-60
2022/03/14 09:35:09;;;;;;;28.88;18.00;;;12.80;77.70;;;;;;5069395;28;20086;-60
2022/03/14 09:37:39;;;;;;;36.90;16.90;;;13.10;77.20;;;;;;5071004;28;20031;-60
2022/03/14 09:40:07;;;;;;;20.92;13.25;;;13.20;76.30;;;;;;5071158;28;20051;-60
2022/03/14 09:42:45;;;;;;;37.70;12.60;;;13.00;78.30;;;;;;5072243;28;20025;-60
2022/03/14 09:45:14;;;;;;;22.55;12.80;;;12.90;80.00;;;;;;5075022;28;20596;-60
2022/03/14 09:47:45;;;;;;;19.73;12.85;;;12.80;80.90;;;;;;5075123;28;20052;-60
2022/03/14 09:50:14;;;;;;;24.10;12.10;;;12.50;82.10;;;;;;5074917;28;20020;-60
2022/03/14 09:52:42;;;;;;;16.55;11.90;;;12.20;83.30;;;;;;5074914;28;20062;-60
2022/03/14 09:55:10;;;;;;;23.45;13.70;;;12.30;84.70;;;;;;5074809;28;20025;-60
2022/03/14 09:57:37;;;;;;;16.17;11.38;;;12.40;84.20;;;;;;5074889;28;20021;-60
2022/03/14 10:00:13;;;;;;;21.33;11.15;;;12.50;84.30;;;;;;5074812;28;20021;-60
2022/03/14 10:02:39;;;;;;;15.63;11.48;;;12.80;83.70;;;;;;5074653;28;20023;-60
2022/03/14 10:05:08;;;;;;;19.63;10.55;;;13.10;82.30;;;;;;5074684;28;20040;-60
2022/03/14 10:07:34;;;;;;;13.80;10.70;;;13.20;82.20;;;;;;5073305;28;20069;-60
2022/03/14 10:10:02;;;;;;;12.15;9.52;;;13.20;81.70;;;;;;5074577;28;20025;-60
2022/03/14 10:12:30;;;;;;;13.98;10.82;;;13.40;82.20;;;;;;5074295;28;20024;-60
2022/03/14 10:14:56;;;;;;;14.65;9.68;;;13.70;81.10;;;;;;5074586;28;20057;-60
2022/03/14 10:17:21;;;;;;;13.52;9.60;;;14.10;80.00;;;;;;5074374;28;20095;-60
2022/03/14 10:19:58;;;;;;;14.93;8.63;;;14.30;78.90;;;;;;5073355;28;20028;-60
2022/03/14 10:22:31;;;;;;;12.63;9.73;;;13.70;78.30;;;;;;5073214;28;20025;-60
2022/03/14 10:25:09;;;;;;;10.02;8.38;;;14.00;78.90;;;;;;5072905;28;20020;-60
2022/03/14 10:27:36;;;;;;;11.18;8.55;;;13.60;78.30;;;;;;5072411;28;20036;-60
2022/03/14 10:30:02;;;;;;;12.52;9.80;;;14.10;77.50;;;;;;5073711;28;20097;-60
2022/03/14 10:32:29;;;;;;;13.27;8.02;;;14.50;75.20;;;;;;5073579;28;20020;-59
2022/03/14 10:34:58;;;;;;;12.05;7.75;;;14.60;75.00;;;;;;5073419;28;20048;-60
2022/03/14 10:37:28;;;;;;;11.55;8.35;;;14.30;74.70;;;;;;5073093;28;20035;-60
2022/03/14 10:40:06;;;;;;;9.50;7.43;;;14.60;75.80;;;;;;5073249;28;20108;-60
2022/03/14 10:42:43;;;;;;;9.65;7.18;;;14.90;76.10;;;;;;5073799;28;20097;-60
2022/03/14 10:45:18;;;;;;;11.10;7.15;;;15.10;73.20;;;;;;5074110;28;20013;-60
2022/03/14 10:47:57;;;;;;;22.08;8.65;;;15.50;71.60;;;;;;5073696;28;20021;-60
2022/03/14 10:50:38;;;;;;;10.20;8.02;;;15.90;71.50;;;;;;5073913;28;20112;-60
2022/03/14 10:53:06;;;;;;;8.05;6.70;;;16.20;67.50;;;;;;5073062;28;20028;-60
2022/03/14 10:55:36;;;;;;;10.07;8.00;;;16.40;66.30;;;;;;5073933;28;20103;-60
2022/03/14 10:58:12;;;;;;;10.60;7.00;;;16.00;65.40;;;;;;5073700;28;20029;-60
2022/03/14 11:00:47;;;;;;;10.57;8.55;;;15.90;66.00;;;;;;5073662;28;20054;-60
2022/03/14 11:03:30;;;;;;;12.98;6.95;;;15.40;66.70;;;;;;5073671;28;20021;-60
2022/03/14 11:06:07;;;;;;;9.03;7.20;;;15.40;66.90;;;;;;5073837;28;20060;-60
2022/03/14 11:08:33;;;;;;;63.20;27.70;;;15.50;67.00;;;;;;5073314;28;20692;-60
2022/03/14 11:11:07;;;;;;;8.63;6.72;;;15.30;66.70;;;;;;5073538;28;20029;-60
2022/03/14 11:13:44;;;;;;;36.65;16.50;;;15.80;65.80;;;;;;5073115;28;20044;-60
2022/03/14 11:16:20;;;;;;;29.15;13.38;;;16.40;64.40;;;;;;5073439;28;20024;-60
2022/03/14 11:18:47;;;;;;;23.90;12.88;;;17.20;62.90;;;;;;5073119;28;20551;-59
2022/03/14 11:21:18;;;;;;;15.75;8.95;;;17.80;58.30;;;;;;5073601;28;20056;-60
2022/03/14 11:23:45;;;;;;;21.52;12.35;;;19.30;53.90;;;;;;5072922;28;20066;-61
2022/03/14 11:26:13;;;;;;;8.38;7.38;;;18.70;54.20;;;;;;5073264;28;20102;-60
2022/03/14 11:28:41;;;;;;;17.00;9.38;;;19.00;53.80;;;;;;5072986;28;20663;-60
2022/03/14 11:31:07;;;;;;;10.82;7.78;;;19.00;53.50;;;;;;5073355;28;20380;-60
2022/03/14 11:33:35;;;;;;;8.85;7.53;;;17.10;55.70;;;;;;5073041;28;20070;-60
2022/03/14 11:36:03;;;;;;;7.22;5.90;;;17.60;56.50;;;;;;5071863;28;20472;-60
2022/03/14 11:38:29;;;;;;;23.95;5.75;;;18.70;54.20;;;;;;5072604;28;20431;-61
2022/03/14 11:40:56;;;;;;;7.38;6.18;;;19.60;52.20;;;;;;5073066;28;20050;-60
2022/03/14 11:43:23;;;;;;;15.40;7.55;;;20.40;49.50;;;;;;5071493;28;20059;-60
2022/03/14 11:45:52;;;;;;;10.98;6.10;;;20.80;49.00;;;;;;5072816;28;20077;-60
2022/03/14 11:48:19;;;;;;;9.43;6.40;;;20.80;47.10;;;;;;5072763;28;20017;-60
2022/03/14 11:50:48;;;;;;;7.63;6.40;;;19.80;47.40;;;;;;5072736;28;20558;-61
2022/03/14 11:53:24;;;;;;;6.97;6.10;;;20.20;49.50;;;;;;5072677;28;20414;-60
2022/03/14 11:56:09;;;;;;;9.88;6.20;;;20.10;47.60;;;;;;5072525;28;20036;-60
2022/03/14 11:58:38;;;;;;;9.10;6.15;;;17.70;50.00;;;;;;5072282;28;20488;-60
2022/03/14 12:01:23;;;;;;;8.13;5.85;;;17.30;51.80;;;;;;5071294;28;20020;-60
2022/03/14 12:03:57;;;;;;;7.70;6.03;;;16.90;52.60;;;;;;5072225;28;20025;-61
2022/03/14 12:06:49;;;;;;;8.27;6.55;;;16.50;53.70;;;;;;5071529;28;20387;-60
2022/03/14 12:09:38;;;;;;;8.50;5.90;;;15.60;55.50;;;;;;5071248;28;20032;-60
2022/03/14 12:12:21;;;;;;;6.20;5.30;;;15.80;56.50;;;;;;5072442;28;20029;-60
2022/03/14 12:14:50;;;;;;;24.70;6.55;;;16.40;54.20;;;;;;5072138;28;20729;-60
2022/03/14 12:17:16;;;;;;;10.63;6.28;;;16.10;54.40;;;;;;5072426;28;20033;-60
2022/03/14 12:19:58;;;;;;;7.82;5.82;;;16.10;55.90;;;;;;5071929;28;20020;-60
2022/03/14 12:22:30;;;;;;;5.97;5.25;;;16.00;55.20;;;;;;5072515;28;20047;-60
2022/03/14 12:24:57;;;;;;;7.63;6.35;;;16.60;54.00;;;;;;5072148;28;20044;-60
2022/03/14 12:27:31;;;;;;;6.40;5.55;;;17.70;52.90;;;;;;5072110;28;20024;-61
2022/03/14 12:30:15;;;;;;;6.25;5.03;;;18.80;50.10;;;;;;5070660;28;20383;-60
2022/03/14 12:32:49;;;;;;;6.00;5.38;;;18.60;48.60;;;;;;5071870;28;20024;-61
2022/03/14 12:35:19;;;;;;;8.80;5.13;;;18.00;49.90;;;;;;5071831;28;20020;-60